createdAt,value
2019-05-07T00:00:43.899Z,90.80
2019-05-07T00:03:12.475Z,91.00
2019-05-07T00:05:42.781Z,91.10
2019-05-07T00:08:12.192Z,91.20
2019-05-07T00:10:42.477Z,91.30
2019-05-07T00:13:12.897Z,91.30
2019-05-07T00:15:41.918Z,91.40
2019-05-07T00:18:12.572Z,91.40
2019-05-07T00:20:42.392Z,91.30
2019-05-07T00:23:12.393Z,91.30
2019-05-07T00:25:42.181Z,91.30
2019-05-07T00:28:12.227Z,91.20
2019-05-07T00:30:42.539Z,91.20
2019-05-07T00:33:13.012Z,91.20
2019-05-07T00:35:49.346Z,91.20
2019-05-07T00:38:22.745Z,91.20
2019-05-07T00:40:52.815Z,91.30
2019-05-07T00:43:22.934Z,91.30
2019-05-07T00:45:53.024Z,91.40
2019-05-07T00:48:23.444Z,91.70
2019-05-07T00:50:53.585Z,91.70
2019-05-07T00:53:23.657Z,91.60
2019-05-07T00:55:52.637Z,91.50
2019-05-07T00:58:25.981Z,91.40
2019-05-07T01:00:53.161Z,91.30
2019-05-07T01:03:22.269Z,91.30
2019-05-07T01:05:52.670Z,91.50
2019-05-07T01:08:22.589Z,91.60
2019-05-07T01:10:52.836Z,91.60
2019-05-07T01:13:23.451Z,91.70
2019-05-07T01:15:53.179Z,91.90
2019-05-07T01:18:23.329Z,92.00
2019-05-07T01:20:53.313Z,92.10
2019-05-07T01:23:23.031Z,92.40
2019-05-07T01:25:52.636Z,92.40
2019-05-07T01:28:22.338Z,92.30
2019-05-07T01:30:52.877Z,92.30
2019-05-07T01:33:39.588Z,92.20
2019-05-07T01:36:16.274Z,92.10
2019-05-07T01:38:44.733Z,92.20
2019-05-07T01:41:13.218Z,92.40
2019-05-07T01:43:42.893Z,92.50
2019-05-07T01:46:12.269Z,92.40
2019-05-07T01:48:42.936Z,92.50
2019-05-07T01:51:12.869Z,92.50
2019-05-07T01:53:43.032Z,92.70
2019-05-07T01:56:12.494Z,92.60
2019-05-07T01:58:42.519Z,92.70
2019-05-07T02:01:18.210Z,92.90
2019-05-07T02:04:02.332Z,92.80
2019-05-07T02:06:32.762Z,92.70
2019-05-07T02:09:03.137Z,92.70
2019-05-07T02:11:45.355Z,92.70
2019-05-07T02:14:13.799Z,92.60
2019-05-07T02:16:42.616Z,92.70
2019-05-07T02:19:12.633Z,93.00
2019-05-07T02:21:42.365Z,93.10
2019-05-07T02:24:12.602Z,93.10
2019-05-07T02:26:42.734Z,93.10
2019-05-07T02:29:12.275Z,93.20
2019-05-07T02:31:43.748Z,93.20
2019-05-07T02:34:13.820Z,93.10
2019-05-07T02:36:43.276Z,93.00
2019-05-07T02:39:25.486Z,93.10
2019-05-07T02:41:54.343Z,93.30
2019-05-07T02:44:23.428Z,93.40
2019-05-07T02:46:53.690Z,93.30
2019-05-07T02:49:23.783Z,93.30
2019-05-07T02:52:13.240Z,93.40
2019-05-07T02:54:57.328Z,93.50
2019-05-07T02:57:27.036Z,93.60
2019-05-07T02:59:55.486Z,93.80
2019-05-07T03:02:24.399Z,93.70
2019-05-07T03:04:53.424Z,93.80
2019-05-07T03:07:24.261Z,93.90
2019-05-07T03:09:53.819Z,94.00
2019-05-07T03:12:23.687Z,94.00
2019-05-07T03:14:53.781Z,93.90
2019-05-07T03:17:24.487Z,93.90
2019-05-07T03:19:54.774Z,93.80
2019-05-07T03:22:23.527Z,93.90
2019-05-07T03:24:53.713Z,93.90
2019-05-07T03:27:23.421Z,93.90
2019-05-07T03:30:04.198Z,93.80
2019-05-07T03:32:37.971Z,93.80
2019-05-07T03:35:16.049Z,93.90
2019-05-07T03:37:44.096Z,94.10
2019-05-07T03:40:14.293Z,94.20
2019-05-07T03:42:44.012Z,94.20
2019-05-07T03:45:23.553Z,94.40
2019-05-07T03:48:13.623Z,94.40
2019-05-07T03:50:43.136Z,94.20
2019-05-07T03:53:14.337Z,94.40
2019-05-07T03:55:44.743Z,94.20
2019-05-07T03:58:14.566Z,94.20
2019-05-07T04:00:44.203Z,94.10
2019-05-07T04:03:18.393Z,94.00
2019-05-07T04:05:43.912Z,94.00
2019-05-07T04:08:13.181Z,93.90
2019-05-07T04:10:44.234Z,93.60
2019-05-07T04:13:13.411Z,93.40
2019-05-07T04:15:44.015Z,93.50
2019-05-07T04:18:13.295Z,93.50
2019-05-07T04:20:43.615Z,93.60
2019-05-07T04:23:13.817Z,93.50
2019-05-07T04:25:59.439Z,93.70
2019-05-07T04:28:38.380Z,93.60
2019-05-07T04:31:06.861Z,93.40
2019-05-07T04:33:43.937Z,93.30
2019-05-07T04:36:14.526Z,93.20
2019-05-07T04:38:43.964Z,93.20
2019-05-07T04:41:13.894Z,93.30
2019-05-07T04:43:43.531Z,93.50
2019-05-07T04:46:14.486Z,93.50
2019-05-07T04:48:43.807Z,93.50
2019-05-07T04:51:14.392Z,93.60
2019-05-07T04:53:43.088Z,93.50
2019-05-07T04:56:14.099Z,93.50
2019-05-07T04:58:43.346Z,93.60
2019-05-07T05:01:14.184Z,93.60
2019-05-07T05:03:43.699Z,93.60
2019-05-07T05:06:13.664Z,93.60
2019-05-07T05:08:43.491Z,93.50
2019-05-07T05:11:12.861Z,93.50
2019-05-07T05:13:44.524Z,93.40
2019-05-07T05:16:25.434Z,93.40
2019-05-07T05:18:55.689Z,93.30
2019-05-07T05:21:42.699Z,93.90
2019-05-07T05:24:22.224Z,93.80
2019-05-07T05:26:52.512Z,93.10
2019-05-07T05:29:22.702Z,92.70
2019-05-07T05:31:52.878Z,92.60
2019-05-07T05:34:22.272Z,92.40
2019-05-07T05:36:52.629Z,92.40
2019-05-07T05:39:22.493Z,92.30
2019-05-07T05:41:52.982Z,92.20
2019-05-07T05:44:26.094Z,91.90
2019-05-07T05:46:54.533Z,91.20
2019-05-07T05:49:23.113Z,91.00
2019-05-07T05:51:53.288Z,90.60
2019-05-07T05:54:32.915Z,90.10
2019-05-07T05:57:17.738Z,89.70
2019-05-07T05:59:51.773Z,89.10
2019-05-07T06:02:22.844Z,88.10
2019-05-07T06:04:58.868Z,88.00
2019-05-07T06:07:38.230Z,87.90
2019-05-07T06:10:14.816Z,87.80
2019-05-07T06:12:54.355Z,87.10
2019-05-07T06:15:33.410Z,86.90
2019-05-07T06:18:20.457Z,86.70
2019-05-07T06:20:56.500Z,86.40
2019-05-07T06:23:26.573Z,85.70
2019-05-07T06:25:55.017Z,85.30
2019-05-07T06:28:23.447Z,84.50
2019-05-07T06:30:52.714Z,84.50
2019-05-07T06:33:22.999Z,83.60
2019-05-07T06:35:52.138Z,83.80
2019-05-07T06:38:22.031Z,83.40
2019-05-07T06:40:52.242Z,81.60
2019-05-07T06:43:42.161Z,81.00
2019-05-07T06:46:12.554Z,82.00
2019-05-07T06:48:43.633Z,80.60
2019-05-07T06:51:12.561Z,80.50
2019-05-07T06:53:42.276Z,79.60
2019-05-07T06:56:12.223Z,78.70
2019-05-07T06:58:52.631Z,79.40
2019-05-07T07:01:35.174Z,78.00
2019-05-07T07:04:12.962Z,77.30
2019-05-07T07:06:49.137Z,74.60
2019-05-07T07:09:25.224Z,74.60
2019-05-07T07:12:13.628Z,73.90
2019-05-07T07:14:42.439Z,74.50
2019-05-07T07:17:12.918Z,72.80
2019-05-07T07:19:42.809Z,73.70
2019-05-07T07:22:12.987Z,70.70
2019-05-07T07:24:42.495Z,71.50
2019-05-07T07:27:13.192Z,72.20
2019-05-07T07:29:55.174Z,71.50
2019-05-07T07:32:34.450Z,70.30
2019-05-07T07:35:03.346Z,69.60
2019-05-07T07:37:36.365Z,72.40
2019-05-07T07:40:13.745Z,70.70
2019-05-07T07:42:42.726Z,69.80
2019-05-07T07:45:15.808Z,70.90
2019-05-07T07:47:45.457Z,67.80
2019-05-07T07:50:15.207Z,68.60
2019-05-07T07:52:43.708Z,67.00
2019-05-07T07:55:22.164Z,68.00
2019-05-07T07:58:04.223Z,65.30
2019-05-07T08:00:43.104Z,66.40
2019-05-07T08:03:13.446Z,65.60
2019-05-07T08:05:42.826Z,64.30
2019-05-07T08:08:12.853Z,65.50
2019-05-07T08:10:42.641Z,65.10
2019-05-07T08:13:12.264Z,67.40
2019-05-07T08:15:42.867Z,65.40
2019-05-07T08:18:11.989Z,62.10
2019-05-07T08:20:43.078Z,63.40
2019-05-07T08:23:12.197Z,60.50
2019-05-07T08:25:52.246Z,61.00
2019-05-07T08:28:26.975Z,60.00
2019-05-07T08:30:57.050Z,59.90
2019-05-07T08:33:39.023Z,58.80
2019-05-07T08:36:08.948Z,58.10
2019-05-07T08:38:52.834Z,58.80
2019-05-07T08:41:23.922Z,56.10
2019-05-07T08:44:07.347Z,55.50
2019-05-07T08:46:42.169Z,56.00
2019-05-07T08:49:12.915Z,54.20
2019-05-07T08:51:42.640Z,53.00
2019-05-07T08:54:12.279Z,54.20
2019-05-07T08:56:42.523Z,54.40
2019-05-07T08:59:17.697Z,54.30
2019-05-07T09:01:46.148Z,55.60
2019-05-07T09:04:14.587Z,56.70
2019-05-07T09:06:43.212Z,55.60
2019-05-07T09:09:13.841Z,54.30
2019-05-07T09:11:42.756Z,53.60
2019-05-07T09:14:12.496Z,52.60
2019-05-07T09:16:42.639Z,51.50
2019-05-07T09:19:14.478Z,55.10
2019-05-07T09:21:43.094Z,55.80
2019-05-07T09:24:12.205Z,54.20
2019-05-07T09:26:42.661Z,53.20
2019-05-07T09:29:32.343Z,53.60
2019-05-07T09:32:12.074Z,52.20
2019-05-07T09:34:42.791Z,51.20
2019-05-07T09:37:24.866Z,54.00
2019-05-07T09:39:53.588Z,52.70
2019-05-07T09:42:22.617Z,52.00
2019-05-07T09:44:52.941Z,52.50
2019-05-07T09:47:21.943Z,50.40
2019-05-07T09:50:03.910Z,49.10
2019-05-07T09:52:22.816Z,51.30
2019-05-07T09:54:52.392Z,50.60
2019-05-07T09:57:30.980Z,51.30
2019-05-07T09:59:53.048Z,52.00
2019-05-07T10:02:22.689Z,49.00
2019-05-07T10:04:52.594Z,50.00
2019-05-07T10:07:22.296Z,50.50
2019-05-07T10:09:52.411Z,51.70
2019-05-07T10:12:25.544Z,52.70
2019-05-07T10:14:53.966Z,54.60
2019-05-07T10:17:24.145Z,54.30
2019-05-07T10:19:52.582Z,55.60
2019-05-07T10:22:22.727Z,56.00
2019-05-07T10:25:19.009Z,55.00
2019-05-07T10:27:47.548Z,55.50
2019-05-07T10:30:17.211Z,57.70
2019-05-07T10:32:45.734Z,56.30
2019-05-07T10:35:14.660Z,55.10
2019-05-07T10:37:43.189Z,55.50
2019-05-07T10:40:12.926Z,56.30
2019-05-07T10:42:43.068Z,55.80
2019-05-07T10:45:32.314Z,59.60
2019-05-07T10:48:18.907Z,56.70
2019-05-07T10:50:48.988Z,51.50
2019-05-07T10:53:17.434Z,50.40
2019-05-07T10:55:45.878Z,51.80
2019-05-07T10:58:14.329Z,51.00
2019-05-07T11:00:43.128Z,52.00
2019-05-07T11:03:12.612Z,52.70
2019-05-07T11:05:41.929Z,51.70
2019-05-07T11:08:10.929Z,50.10
2019-05-07T11:10:39.378Z,50.70
2019-05-07T11:13:07.967Z,49.10
2019-05-07T11:15:36.759Z,51.70
2019-05-07T11:18:12.943Z,47.80
2019-05-07T11:20:49.916Z,45.70
2019-05-07T11:23:12.544Z,47.30
2019-05-07T11:25:42.118Z,47.20
2019-05-07T11:28:12.402Z,49.40
2019-05-07T11:30:42.569Z,49.30
2019-05-07T11:33:12.761Z,51.40
2019-05-07T11:35:42.305Z,49.20
2019-05-07T11:38:20.412Z,49.30
2019-05-07T11:40:42.699Z,50.20
2019-05-07T11:43:13.698Z,52.60
2019-05-07T11:45:43.764Z,50.40
2019-05-07T11:48:21.994Z,52.20
2019-05-07T11:51:04.108Z,49.70
2019-05-07T11:53:54.640Z,48.60
2019-05-07T11:56:23.103Z,50.70
2019-05-07T11:58:54.692Z,54.00
2019-05-07T12:01:22.539Z,51.80
2019-05-07T12:03:52.029Z,52.50
2019-05-07T12:06:21.668Z,52.50
2019-05-07T12:08:52.189Z,49.40
2019-05-07T12:11:21.839Z,44.60
2019-05-07T12:13:52.254Z,45.50
2019-05-07T12:16:22.319Z,48.20
2019-05-07T12:18:52.416Z,50.00
2019-05-07T12:21:24.214Z,48.40
2019-05-07T12:23:52.582Z,49.10
2019-05-07T12:26:23.082Z,49.70
2019-05-07T12:28:52.165Z,48.00
2019-05-07T12:31:25.636Z,47.00
2019-05-07T12:33:58.473Z,47.80
2019-05-07T12:36:27.017Z,49.30
2019-05-07T12:38:55.490Z,43.50
2019-05-07T12:41:33.242Z,43.80
2019-05-07T12:44:03.644Z,52.80
2019-05-07T12:46:33.372Z,48.90
2019-05-07T12:49:03.153Z,46.80
2019-05-07T12:51:37.470Z,43.70
2019-05-07T12:54:18.358Z,44.90
2019-05-07T12:56:47.126Z,45.90
2019-05-07T12:59:15.548Z,47.30
2019-05-07T13:02:21.399Z,42.30
2019-05-07T13:04:38.279Z,46.00
2019-05-07T13:07:11.658Z,45.70
2019-05-07T13:09:40.269Z,47.20
2019-05-07T13:12:08.696Z,45.60
2019-05-07T13:14:37.125Z,46.00
2019-05-07T13:17:06.837Z,44.70
2019-05-07T13:19:35.394Z,47.20
2019-05-07T13:22:04.215Z,47.80
2019-05-07T13:24:32.785Z,47.70
2019-05-07T13:27:03.256Z,48.50
2019-05-07T13:29:32.656Z,48.20
2019-05-07T13:32:03.444Z,46.20
2019-05-07T13:34:34.100Z,43.60
2019-05-07T13:37:04.419Z,45.40
2019-05-07T13:39:35.448Z,42.60
2019-05-07T13:42:05.993Z,43.40
2019-05-07T13:44:39.340Z,41.20
2019-05-07T13:47:25.802Z,41.80
2019-05-07T13:49:54.975Z,39.00
2019-05-07T13:52:28.582Z,41.00
2019-05-07T13:54:57.274Z,42.20
2019-05-07T13:57:27.272Z,40.80
2019-05-07T13:59:55.765Z,39.50
2019-05-07T14:02:26.490Z,40.70
2019-05-07T14:04:55.240Z,39.00
2019-05-07T14:07:25.157Z,35.90
2019-05-07T14:09:53.617Z,35.60
2019-05-07T14:12:22.882Z,36.60
2019-05-07T14:14:53.102Z,36.30
2019-05-07T14:17:22.740Z,39.40
2019-05-07T14:19:53.119Z,36.60
2019-05-07T14:22:22.599Z,35.30
2019-05-07T14:24:53.037Z,34.80
2019-05-07T14:27:22.370Z,35.30
2019-05-07T14:29:52.104Z,36.90
2019-05-07T14:32:38.985Z,36.20
2019-05-07T14:35:16.153Z,35.90
2019-05-07T14:37:52.357Z,36.50
2019-05-07T14:40:22.285Z,39.60
2019-05-07T14:42:53.434Z,39.80
2019-05-07T14:45:23.745Z,38.30
2019-05-07T14:47:52.276Z,38.10
2019-05-07T14:50:22.600Z,39.00
2019-05-07T14:52:54.805Z,41.40
2019-05-07T14:55:22.270Z,41.30
2019-05-07T14:57:52.422Z,41.40
2019-05-07T15:00:24.775Z,39.00
2019-05-07T15:02:53.229Z,39.40
2019-05-07T15:05:22.433Z,37.20
2019-05-07T15:07:51.394Z,36.50
2019-05-07T15:10:22.025Z,35.20
2019-05-07T15:12:52.210Z,34.00
2019-05-07T15:15:21.995Z,33.90
2019-05-07T15:17:52.551Z,34.70
2019-05-07T15:20:22.656Z,32.30
2019-05-07T15:22:53.395Z,33.80
2019-05-07T15:25:22.730Z,34.70
2019-05-07T15:27:52.792Z,34.90
2019-05-07T15:30:22.074Z,35.00
2019-05-07T15:32:52.155Z,33.30
2019-05-07T15:35:21.094Z,36.00
2019-05-07T15:37:51.688Z,33.50
2019-05-07T15:40:22.457Z,31.70
2019-05-07T15:42:52.515Z,33.90
2019-05-07T15:45:21.700Z,36.80
2019-05-07T15:47:52.164Z,37.10
2019-05-07T15:50:23.042Z,37.00
2019-05-07T15:52:58.438Z,37.50
2019-05-07T15:55:23.400Z,37.70
2019-05-07T15:57:52.267Z,38.30
2019-05-07T16:00:23.116Z,39.30
2019-05-07T16:02:53.745Z,39.20
2019-05-07T16:05:23.020Z,39.60
2019-05-07T16:07:51.955Z,37.30
2019-05-07T16:10:23.010Z,38.40
2019-05-07T16:12:53.080Z,38.90
2019-05-07T16:15:23.491Z,40.10
2019-05-07T16:18:05.560Z,38.30
2019-05-07T16:20:34.381Z,38.90
2019-05-07T16:23:14.449Z,37.80
2019-05-07T16:25:33.793Z,36.40
2019-05-07T16:28:04.895Z,37.50
2019-05-07T16:30:32.559Z,37.40
2019-05-07T16:33:02.166Z,39.30
2019-05-07T16:35:32.037Z,41.10
2019-05-07T16:38:00.811Z,40.60
2019-05-07T16:40:29.600Z,40.50
2019-05-07T16:42:58.378Z,41.20
2019-05-07T16:45:26.843Z,40.40
2019-05-07T16:47:55.281Z,40.80
2019-05-07T16:50:23.897Z,42.10
2019-05-07T16:52:52.584Z,42.00
2019-05-07T16:55:22.480Z,42.90
2019-05-07T16:58:05.055Z,46.20
2019-05-07T17:00:42.262Z,44.10
2019-05-07T17:03:12.737Z,44.80
2019-05-07T17:05:42.821Z,43.80
2019-05-07T17:08:13.389Z,44.70
2019-05-07T17:10:42.413Z,45.90
2019-05-07T17:13:12.501Z,46.80
2019-05-07T17:15:57.993Z,46.20
2019-05-07T17:18:27.362Z,47.20
2019-05-07T17:20:56.895Z,47.70
2019-05-07T17:23:26.177Z,48.10
2019-05-07T17:25:54.593Z,49.60
2019-05-07T17:28:23.649Z,49.40
2019-05-07T17:30:52.590Z,50.20
2019-05-07T17:33:23.057Z,52.60
2019-05-07T17:35:51.764Z,52.40
2019-05-07T17:38:22.824Z,52.90
2019-05-07T17:40:52.161Z,53.70
2019-05-07T17:43:21.957Z,53.80
2019-05-07T17:45:59.174Z,54.20
2019-05-07T17:48:28.067Z,54.60
2019-05-07T17:51:07.613Z,53.90
2019-05-07T17:53:36.189Z,53.20
2019-05-07T17:56:04.640Z,53.90
2019-05-07T17:58:33.076Z,54.30
2019-05-07T18:01:03.281Z,54.60
2019-05-07T18:03:35.680Z,56.10
2019-05-07T18:06:05.900Z,55.50
2019-05-07T18:08:34.483Z,55.50
2019-05-07T18:11:17.304Z,55.70
2019-05-07T18:13:33.063Z,56.50
2019-05-07T18:16:09.184Z,56.70
2019-05-07T18:18:37.629Z,56.80
2019-05-07T18:21:06.126Z,57.60
2019-05-07T18:23:36.571Z,57.50
2019-05-07T18:26:05.061Z,58.60
2019-05-07T18:28:33.490Z,58.90
2019-05-07T18:31:02.168Z,60.20
2019-05-07T18:33:38.490Z,61.00
2019-05-07T18:36:06.948Z,61.60
2019-05-07T18:38:42.391Z,61.90
2019-05-07T18:41:12.247Z,62.10
2019-05-07T18:43:42.231Z,62.40
2019-05-07T18:46:12.894Z,63.00
2019-05-07T18:48:42.826Z,63.60
2019-05-07T18:51:12.141Z,63.40
2019-05-07T18:53:42.556Z,63.00
2019-05-07T18:56:12.672Z,63.50
2019-05-07T18:58:42.662Z,64.10
2019-05-07T19:01:12.976Z,64.10
2019-05-07T19:03:42.385Z,65.10
2019-05-07T19:06:13.443Z,65.40
2019-05-07T19:08:42.433Z,65.60
2019-05-07T19:11:12.313Z,65.30
2019-05-07T19:13:41.973Z,65.60
2019-05-07T19:16:16.562Z,65.70
2019-05-07T19:18:46.180Z,66.70
2019-05-07T19:21:14.713Z,68.20
2019-05-07T19:23:43.265Z,69.10
2019-05-07T19:26:13.104Z,70.00
2019-05-07T19:28:42.196Z,70.30
2019-05-07T19:31:12.531Z,70.50
2019-05-07T19:33:42.702Z,70.70
2019-05-07T19:36:11.171Z,70.80
2019-05-07T19:38:41.889Z,72.10
2019-05-07T19:41:12.267Z,72.60
2019-05-07T19:43:41.947Z,72.10
2019-05-07T19:46:12.443Z,73.10
2019-05-07T19:48:43.865Z,73.00
2019-05-07T19:51:14.014Z,73.00
2019-05-07T19:53:58.070Z,72.90
2019-05-07T19:56:26.625Z,72.70
2019-05-07T19:58:55.055Z,72.70
2019-05-07T20:01:26.200Z,72.90
2019-05-07T20:03:54.666Z,73.20
2019-05-07T20:06:23.643Z,74.20
2019-05-07T20:08:52.935Z,75.00
2019-05-07T20:11:29.196Z,75.60
2019-05-07T20:13:57.629Z,75.60
2019-05-07T20:16:26.235Z,75.70
2019-05-07T20:18:54.666Z,76.20
2019-05-07T20:21:23.153Z,76.70
2019-05-07T20:23:52.672Z,77.60
2019-05-07T20:26:23.145Z,77.80
2019-05-07T20:28:52.709Z,77.70
2019-05-07T20:31:22.688Z,77.70
2019-05-07T20:33:53.116Z,77.90
2019-05-07T20:36:21.770Z,77.70
2019-05-07T20:38:52.209Z,78.00
2019-05-07T20:41:23.067Z,78.40
2019-05-07T20:43:52.368Z,78.60
2019-05-07T20:46:20.933Z,78.80
2019-05-07T20:48:49.382Z,79.20
2019-05-07T20:51:18.157Z,79.40
2019-05-07T20:54:05.890Z,79.60
2019-05-07T20:56:42.003Z,79.80
2019-05-07T20:59:12.483Z,80.00
2019-05-07T21:01:41.979Z,80.70
2019-05-07T21:04:12.766Z,80.70
2019-05-07T21:06:43.194Z,80.70
2019-05-07T21:09:12.630Z,80.50
2019-05-07T21:11:43.036Z,79.80
2019-05-07T21:14:12.183Z,79.80
2019-05-07T21:16:42.468Z,79.80
2019-05-07T21:19:12.809Z,79.70
2019-05-07T21:21:42.225Z,79.70
2019-05-07T21:24:13.087Z,79.40
2019-05-07T21:26:42.349Z,79.50
2019-05-07T21:29:13.511Z,79.70
2019-05-07T21:31:43.024Z,80.80
2019-05-07T21:34:12.427Z,80.60
2019-05-07T21:36:43.239Z,80.60
2019-05-07T21:39:13.004Z,80.50
2019-05-07T21:41:42.794Z,80.70
2019-05-07T21:44:11.661Z,81.30
2019-05-07T21:46:42.317Z,81.50
2019-05-07T21:49:12.179Z,81.90
2019-05-07T21:51:40.429Z,82.00
2019-05-07T21:54:12.121Z,82.10
2019-05-07T21:56:54.827Z,82.30
2019-05-07T21:59:28.519Z,82.70
2019-05-07T22:02:02.229Z,83.10
2019-05-07T22:04:31.012Z,83.40
2019-05-07T22:06:59.425Z,84.20
2019-05-07T22:09:27.881Z,84.40
2019-05-07T22:11:56.642Z,84.90
2019-05-07T22:14:25.083Z,85.00
2019-05-07T22:16:54.585Z,85.10
2019-05-07T22:19:23.337Z,85.50
2019-05-07T22:21:52.396Z,85.60
2019-05-07T22:24:22.443Z,85.40
2019-05-07T22:26:51.613Z,85.40
2019-05-07T22:29:20.045Z,85.10
2019-05-07T22:32:05.680Z,84.80
2019-05-07T22:34:35.765Z,84.50
2019-05-07T22:37:04.200Z,84.30
2019-05-07T22:39:32.840Z,84.40
2019-05-07T22:42:02.386Z,84.50
2019-05-07T22:44:32.711Z,84.50
2019-05-07T22:47:02.791Z,84.90
2019-05-07T22:49:33.193Z,84.80
2019-05-07T22:52:02.358Z,84.80
2019-05-07T22:54:31.918Z,84.80
2019-05-07T22:57:05.231Z,84.90
2019-05-07T22:59:33.650Z,85.30
2019-05-07T23:02:03.070Z,85.50
2019-05-07T23:04:32.659Z,85.80
2019-05-07T23:07:02.228Z,85.80
2019-05-07T23:09:30.919Z,85.90
2019-05-07T23:12:01.720Z,86.00
2019-05-07T23:14:29.526Z,86.50
2019-05-07T23:16:57.952Z,86.90
2019-05-07T23:19:26.388Z,87.00
2019-05-07T23:21:54.816Z,86.80
2019-05-07T23:24:24.897Z,86.50
2019-05-07T23:26:53.828Z,86.20
2019-05-07T23:29:22.783Z,86.00
2019-05-07T23:31:53.024Z,86.40
2019-05-07T23:34:22.102Z,86.60
2019-05-07T23:36:53.326Z,86.40
2019-05-07T23:39:22.822Z,86.30
2019-05-07T23:41:55.719Z,86.30
2019-05-07T23:44:24.172Z,86.30
2019-05-07T23:46:52.607Z,86.40
2019-05-07T23:49:23.244Z,86.70
2019-05-07T23:51:53.029Z,87.00
2019-05-07T23:54:22.993Z,86.90
2019-05-07T23:57:04.927Z,87.10
2019-05-07T23:59:22.346Z,87.10
